sensor_id;sensor_type;location;lat;lon;timestamp;temperature;humidity
37158;DHT22;23050;51.776;22.638;2023-07-30T00:00:43;18.80;99.90
37158;DHT22;23050;51.776;22.638;2023-07-30T00:03:09;18.70;99.90
37158;DHT22;23050;51.776;22.638;2023-07-30T00:05:34;18.50;99.90
37158;DHT22;23050;51.776;22.638;2023-07-30T00:07:59;18.40;99.90
37158;DHT22;23050;51.776;22.638;2023-07-30T00:10:25;18.40;99.90
37158;DHT22;23050;51.776;22.638;2023-07-30T00:12:50;18.30;99.90
37158;DHT22;23050;51.776;22.638;2023-07-30T00:15:16;18.30;99.90
37158;DHT22;23050;51.776;22.638;2023-07-30T00:17:42;18.40;99.90
37158;DHT22;23050;51.776;22.638;2023-07-30T00:20:08;18.50;99.90
37158;DHT22;23050;51.776;22.638;2023-07-30T00:22:33;18.50;99.90
37158;DHT22;23050;51.776;22.638;2023-07-30T00:24:59;18.50;99.90
37158;DHT22;23050;51.776;22.638;2023-07-30T00:27:24;18.50;99.90
37158;DHT22;23050;51.776;22.638;2023-07-30T00:29:50;18.60;99.90
37158;DHT22;23050;51.776;22.638;2023-07-30T00:32:15;18.60;99.90
37158;DHT22;23050;51.776;22.638;2023-07-30T00:34:42;18.60;99.90
37158;DHT22;23050;51.776;22.638;2023-07-30T00:37:07;18.60;99.90
37158;DHT22;23050;51.776;22.638;2023-07-30T00:39:33;18.50;99.90
37158;DHT22;23050;51.776;22.638;2023-07-30T00:41:58;18.50;99.90
37158;DHT22;23050;51.776;22.638;2023-07-30T00:44:24;18.40;99.90
37158;DHT22;23050;51.776;22.638;2023-07-30T00:46:49;18.30;99.90
37158;DHT22;23050;51.776;22.638;2023-07-30T00:49:15;18.20;99.90
37158;DHT22;23050;51.776;22.638;2023-07-30T00:51:41;18.20;99.90
37158;DHT22;23050;51.776;22.638;2023-07-30T00:54:07;18.10;99.90
37158;DHT22;23050;51.776;22.638;2023-07-30T00:56:33;18.10;99.90
37158;DHT22;23050;51.776;22.638;2023-07-30T00:58:58;18.00;99.90
37158;DHT22;23050;51.776;22.638;2023-07-30T01:01:24;17.90;99.90
37158;DHT22;23050;51.776;22.638;2023-07-30T01:03:49;17.90;99.90
37158;DHT22;23050;51.776;22.638;2023-07-30T01:06:15;17.80;99.90
37158;DHT22;23050;51.776;22.638;2023-07-30T01:08:41;17.70;99.90
37158;DHT22;23050;51.776;22.638;2023-07-30T01:11:06;17.60;99.90
37158;DHT22;23050;51.776;22.638;2023-07-30T01:13:33;17.60;99.90
37158;DHT22;23050;51.776;22.638;2023-07-30T01:15:58;17.50;99.90
37158;DHT22;23050;51.776;22.638;2023-07-30T01:18:24;17.50;99.90
37158;DHT22;23050;51.776;22.638;2023-07-30T01:20:53;17.40;99.90
37158;DHT22;23050;51.776;22.638;2023-07-30T01:23:18;17.40;99.90
37158;DHT22;23050;51.776;22.638;2023-07-30T01:25:44;17.30;99.90
37158;DHT22;23050;51.776;22.638;2023-07-30T01:28:10;17.30;99.90
37158;DHT22;23050;51.776;22.638;2023-07-30T01:30:38;17.30;99.90
37158;DHT22;23050;51.776;22.638;2023-07-30T01:33:06;17.20;99.90
37158;DHT22;23050;51.776;22.638;2023-07-30T01:35:32;17.20;99.90
37158;DHT22;23050;51.776;22.638;2023-07-30T01:37:58;17.20;99.90
37158;DHT22;23050;51.776;22.638;2023-07-30T01:40:24;17.20;99.90
37158;DHT22;23050;51.776;22.638;2023-07-30T01:42:49;17.10;99.90
37158;DHT22;23050;51.776;22.638;2023-07-30T01:45:15;17.10;99.90
37158;DHT22;23050;51.776;22.638;2023-07-30T01:47:40;17.00;99.90
37158;DHT22;23050;51.776;22.638;2023-07-30T01:50:06;17.00;99.90
37158;DHT22;23050;51.776;22.638;2023-07-30T01:52:31;17.00;99.90
37158;DHT22;23050;51.776;22.638;2023-07-30T01:54:57;17.00;99.90
37158;DHT22;23050;51.776;22.638;2023-07-30T01:57:24;17.00;99.90
37158;DHT22;23050;51.776;22.638;2023-07-30T01:59:49;16.90;99.90
37158;DHT22;23050;51.776;22.638;2023-07-30T02:02:15;16.90;99.90
37158;DHT22;23050;51.776;22.638;2023-07-30T02:04:40;16.90;99.90
37158;DHT22;23050;51.776;22.638;2023-07-30T02:07:06;16.90;99.90
37158;DHT22;23050;51.776;22.638;2023-07-30T02:09:31;16.90;99.90
37158;DHT22;23050;51.776;22.638;2023-07-30T02:11:56;16.90;99.90
37158;DHT22;23050;51.776;22.638;2023-07-30T02:14:22;16.90;99.90
37158;DHT22;23050;51.776;22.638;2023-07-30T02:16:47;16.90;99.90
37158;DHT22;23050;51.776;22.638;2023-07-30T02:19:13;16.90;99.90
37158;DHT22;23050;51.776;22.638;2023-07-30T02:21:38;16.90;99.90
37158;DHT22;23050;51.776;22.638;2023-07-30T02:24:08;16.90;99.90
37158;DHT22;23050;51.776;22.638;2023-07-30T02:26:35;16.90;99.90
37158;DHT22;23050;51.776;22.638;2023-07-30T02:29:01;16.90;99.90
37158;DHT22;23050;51.776;22.638;2023-07-30T02:31:26;16.90;99.90
37158;DHT22;23050;51.776;22.638;2023-07-30T02:33:52;16.90;1.00
37158;DHT22;23050;51.776;22.638;2023-07-30T02:36:17;16.90;1.00
37158;DHT22;23050;51.776;22.638;2023-07-30T02:38:42;17.00;1.00
37158;DHT22;23050;51.776;22.638;2023-07-30T02:41:08;17.00;1.00
37158;DHT22;23050;51.776;22.638;2023-07-30T02:43:33;17.00;1.00
37158;DHT22;23050;51.776;22.638;2023-07-30T02:45:59;17.10;1.00
37158;DHT22;23050;51.776;22.638;2023-07-30T02:48:24;17.10;1.00
37158;DHT22;23050;51.776;22.638;2023-07-30T02:50:50;17.20;1.00
37158;DHT22;23050;51.776;22.638;2023-07-30T02:53:15;17.20;1.00
37158;DHT22;23050;51.776;22.638;2023-07-30T02:55:41;17.20;1.00
37158;DHT22;23050;51.776;22.638;2023-07-30T02:58:06;17.20;1.00
37158;DHT22;23050;51.776;22.638;2023-07-30T03:00:32;17.20;1.00
37158;DHT22;23050;51.776;22.638;2023-07-30T03:02:57;17.30;1.00
37158;DHT22;23050;51.776;22.638;2023-07-30T03:05:22;17.20;1.00
37158;DHT22;23050;51.776;22.638;2023-07-30T03:07:48;17.20;1.00
37158;DHT22;23050;51.776;22.638;2023-07-30T03:10:13;17.20;1.00
37158;DHT22;23050;51.776;22.638;2023-07-30T03:12:39;17.20;1.00
37158;DHT22;23050;51.776;22.638;2023-07-30T03:15:04;17.30;1.00
37158;DHT22;23050;51.776;22.638;2023-07-30T03:17:30;17.30;1.00
37158;DHT22;23050;51.776;22.638;2023-07-30T03:19:55;17.30;1.00
37158;DHT22;23050;51.776;22.638;2023-07-30T03:22:21;17.30;1.00
37158;DHT22;23050;51.776;22.638;2023-07-30T03:24:46;17.30;1.00
37158;DHT22;23050;51.776;22.638;2023-07-30T03:27:15;17.30;1.00
37158;DHT22;23050;51.776;22.638;2023-07-30T03:29:40;17.40;1.00
37158;DHT22;23050;51.776;22.638;2023-07-30T03:32:06;17.40;1.00
37158;DHT22;23050;51.776;22.638;2023-07-30T03:34:31;17.40;1.00
37158;DHT22;23050;51.776;22.638;2023-07-30T03:36:57;17.40;1.00
37158;DHT22;23050;51.776;22.638;2023-07-30T03:39:25;17.40;1.00
37158;DHT22;23050;51.776;22.638;2023-07-30T03:41:51;17.40;1.00
37158;DHT22;23050;51.776;22.638;2023-07-30T03:44:16;17.50;1.00
37158;DHT22;23050;51.776;22.638;2023-07-30T03:46:42;17.40;1.00
37158;DHT22;23050;51.776;22.638;2023-07-30T03:49:08;17.40;1.00
37158;DHT22;23050;51.776;22.638;2023-07-30T03:51:33;17.30;1.00
37158;DHT22;23050;51.776;22.638;2023-07-30T03:53:59;17.30;1.00
37158;DHT22;23050;51.776;22.638;2023-07-30T03:56:24;17.30;1.00
37158;DHT22;23050;51.776;22.638;2023-07-30T03:58:50;17.30;1.00
37158;DHT22;23050;51.776;22.638;2023-07-30T04:01:15;17.30;1.00
37158;DHT22;23050;51.776;22.638;2023-07-30T04:03:41;17.30;1.00
37158;DHT22;23050;51.776;22.638;2023-07-30T04:06:06;17.40;1.00
37158;DHT22;23050;51.776;22.638;2023-07-30T04:08:32;17.40;1.00
37158;DHT22;23050;51.776;22.638;2023-07-30T04:10:57;17.50;1.00
37158;DHT22;23050;51.776;22.638;2023-07-30T04:13:23;17.50;1.00
37158;DHT22;23050;51.776;22.638;2023-07-30T04:15:48;17.60;1.00
37158;DHT22;23050;51.776;22.638;2023-07-30T04:18:14;17.60;1.00
37158;DHT22;23050;51.776;22.638;2023-07-30T04:20:39;17.70;1.00
37158;DHT22;23050;51.776;22.638;2023-07-30T04:23:05;17.80;1.00
37158;DHT22;23050;51.776;22.638;2023-07-30T04:25:30;17.80;1.00
37158;DHT22;23050;51.776;22.638;2023-07-30T04:27:56;17.90;1.00
37158;DHT22;23050;51.776;22.638;2023-07-30T04:30:21;18.00;1.00
37158;DHT22;23050;51.776;22.638;2023-07-30T04:32:47;18.00;1.00
37158;DHT22;23050;51.776;22.638;2023-07-30T04:35:12;18.10;99.90
37158;DHT22;23050;51.776;22.638;2023-07-30T04:37:38;18.20;99.90
37158;DHT22;23050;51.776;22.638;2023-07-30T04:40:04;18.30;99.90
37158;DHT22;23050;51.776;22.638;2023-07-30T04:42:29;18.40;99.90
37158;DHT22;23050;51.776;22.638;2023-07-30T04:44:55;18.50;99.90
37158;DHT22;23050;51.776;22.638;2023-07-30T04:47:20;18.60;99.90
37158;DHT22;23050;51.776;22.638;2023-07-30T04:49:46;18.70;99.90
37158;DHT22;23050;51.776;22.638;2023-07-30T04:52:11;18.80;99.90
37158;DHT22;23050;51.776;22.638;2023-07-30T04:54:37;18.80;99.90
37158;DHT22;23050;51.776;22.638;2023-07-30T04:57:03;18.90;99.90
37158;DHT22;23050;51.776;22.638;2023-07-30T04:59:37;19.00;99.90
37158;DHT22;23050;51.776;22.638;2023-07-30T05:05:07;19.20;99.90
37158;DHT22;23050;51.776;22.638;2023-07-30T05:07:33;19.30;99.90
37158;DHT22;23050;51.776;22.638;2023-07-30T05:09:58;19.40;99.90
37158;DHT22;23050;51.776;22.638;2023-07-30T05:12:24;19.60;99.90
37158;DHT22;23050;51.776;22.638;2023-07-30T05:14:49;19.80;99.90
37158;DHT22;23050;51.776;22.638;2023-07-30T05:17:15;19.90;99.90
37158;DHT22;23050;51.776;22.638;2023-07-30T05:19:40;20.00;99.90
37158;DHT22;23050;51.776;22.638;2023-07-30T05:22:06;19.80;99.90
37158;DHT22;23050;51.776;22.638;2023-07-30T05:24:33;19.60;99.90
37158;DHT22;23050;51.776;22.638;2023-07-30T05:26:58;19.80;99.90
37158;DHT22;23050;51.776;22.638;2023-07-30T05:29:24;20.30;99.90
37158;DHT22;23050;51.776;22.638;2023-07-30T05:31:49;20.90;99.90
37158;DHT22;23050;51.776;22.638;2023-07-30T05:34:15;21.50;99.90
37158;DHT22;23050;51.776;22.638;2023-07-30T05:36:40;21.80;99.90
37158;DHT22;23050;51.776;22.638;2023-07-30T05:39:06;21.80;99.90
37158;DHT22;23050;51.776;22.638;2023-07-30T05:41:31;22.10;99.90
37158;DHT22;23050;51.776;22.638;2023-07-30T05:43:57;22.70;99.90
37158;DHT22;23050;51.776;22.638;2023-07-30T05:46:22;23.60;93.90
37158;DHT22;23050;51.776;22.638;2023-07-30T05:48:48;24.50;74.30
37158;DHT22;23050;51.776;22.638;2023-07-30T05:51:13;24.20;65.50
37158;DHT22;23050;51.776;22.638;2023-07-30T05:53:39;24.00;66.30
37158;DHT22;23050;51.776;22.638;2023-07-30T05:56:04;23.00;76.30
37158;DHT22;23050;51.776;22.638;2023-07-30T05:58:30;22.50;89.90
37158;DHT22;23050;51.776;22.638;2023-07-30T06:00:56;22.10;94.30
37158;DHT22;23050;51.776;22.638;2023-07-30T06:03:21;21.50;99.90
37158;DHT22;23050;51.776;22.638;2023-07-30T06:05:47;21.10;99.90
37158;DHT22;23050;51.776;22.638;2023-07-30T06:08:12;20.80;99.90
37158;DHT22;23050;51.776;22.638;2023-07-30T06:10:38;20.60;99.90
37158;DHT22;23050;51.776;22.638;2023-07-30T06:13:04;20.70;99.90
37158;DHT22;23050;51.776;22.638;2023-07-30T06:15:30;20.50;99.90
37158;DHT22;23050;51.776;22.638;2023-07-30T06:17:55;20.40;99.90
37158;DHT22;23050;51.776;22.638;2023-07-30T06:20:21;20.40;99.90
37158;DHT22;23050;51.776;22.638;2023-07-30T06:22:46;20.20;99.90
37158;DHT22;23050;51.776;22.638;2023-07-30T06:25:12;20.30;99.90
37158;DHT22;23050;51.776;22.638;2023-07-30T06:27:37;20.30;99.90
37158;DHT22;23050;51.776;22.638;2023-07-30T06:30:03;20.40;99.90
37158;DHT22;23050;51.776;22.638;2023-07-30T06:32:29;20.30;99.90
37158;DHT22;23050;51.776;22.638;2023-07-30T06:34:55;20.40;99.90
37158;DHT22;23050;51.776;22.638;2023-07-30T06:37:20;20.40;99.90
37158;DHT22;23050;51.776;22.638;2023-07-30T06:39:46;20.30;99.90
37158;DHT22;23050;51.776;22.638;2023-07-30T06:42:11;20.40;99.90
37158;DHT22;23050;51.776;22.638;2023-07-30T06:44:37;20.40;99.90
37158;DHT22;23050;51.776;22.638;2023-07-30T06:47:02;20.30;99.90
37158;DHT22;23050;51.776;22.638;2023-07-30T06:49:28;20.10;99.90
37158;DHT22;23050;51.776;22.638;2023-07-30T06:51:53;20.10;99.90
37158;DHT22;23050;51.776;22.638;2023-07-30T06:54:20;20.00;99.90
37158;DHT22;23050;51.776;22.638;2023-07-30T06:56:45;20.10;99.90
37158;DHT22;23050;51.776;22.638;2023-07-30T06:59:10;20.00;99.90
37158;DHT22;23050;51.776;22.638;2023-07-30T07:01:36;20.00;99.90
37158;DHT22;23050;51.776;22.638;2023-07-30T07:04:01;19.90;99.90
37158;DHT22;23050;51.776;22.638;2023-07-30T07:06:27;20.00;99.90
37158;DHT22;23050;51.776;22.638;2023-07-30T07:08:52;20.00;99.90
37158;DHT22;23050;51.776;22.638;2023-07-30T07:11:18;19.90;99.90
37158;DHT22;23050;51.776;22.638;2023-07-30T07:13:44;19.90;99.90
37158;DHT22;23050;51.776;22.638;2023-07-30T07:16:09;20.00;99.90
37158;DHT22;23050;51.776;22.638;2023-07-30T07:18:35;20.10;99.90
37158;DHT22;23050;51.776;22.638;2023-07-30T07:21:00;20.20;99.90
37158;DHT22;23050;51.776;22.638;2023-07-30T07:23:26;20.50;99.90
37158;DHT22;23050;51.776;22.638;2023-07-30T07:25:51;20.80;99.90
37158;DHT22;23050;51.776;22.638;2023-07-30T07:28:17;21.50;99.90
37158;DHT22;23050;51.776;22.638;2023-07-30T07:30:44;22.00;99.90
37158;DHT22;23050;51.776;22.638;2023-07-30T07:33:10;22.00;99.90
37158;DHT22;23050;51.776;22.638;2023-07-30T07:35:38;21.90;99.90
37158;DHT22;23050;51.776;22.638;2023-07-30T07:38:04;22.00;99.90
37158;DHT22;23050;51.776;22.638;2023-07-30T07:40:29;21.90;99.90
37158;DHT22;23050;51.776;22.638;2023-07-30T07:42:55;21.40;99.90
37158;DHT22;23050;51.776;22.638;2023-07-30T07:45:20;21.10;99.90
37158;DHT22;23050;51.776;22.638;2023-07-30T07:47:46;21.00;99.90
37158;DHT22;23050;51.776;22.638;2023-07-30T07:50:11;21.00;99.90
37158;DHT22;23050;51.776;22.638;2023-07-30T07:52:37;20.90;99.90
37158;DHT22;23050;51.776;22.638;2023-07-30T07:55:03;20.70;99.90
37158;DHT22;23050;51.776;22.638;2023-07-30T07:57:28;20.70;99.90
37158;DHT22;23050;51.776;22.638;2023-07-30T07:59:55;21.10;99.90
37158;DHT22;23050;51.776;22.638;2023-07-30T08:02:21;21.50;99.90
37158;DHT22;23050;51.776;22.638;2023-07-30T08:04:46;21.90;99.50
37158;DHT22;23050;51.776;22.638;2023-07-30T08:07:12;22.10;96.90
37158;DHT22;23050;51.776;22.638;2023-07-30T08:09:38;22.60;94.50
37158;DHT22;23050;51.776;22.638;2023-07-30T08:12:03;23.10;87.40
37158;DHT22;23050;51.776;22.638;2023-07-30T08:14:29;23.40;76.70
37158;DHT22;23050;51.776;22.638;2023-07-30T08:16:54;24.10;63.70
37158;DHT22;23050;51.776;22.638;2023-07-30T08:19:20;25.00;40.80
37158;DHT22;23050;51.776;22.638;2023-07-30T08:21:45;26.70;18.20
37158;DHT22;23050;51.776;22.638;2023-07-30T08:24:11;27.80;1.00
37158;DHT22;23050;51.776;22.638;2023-07-30T08:26:36;27.40;1.00
37158;DHT22;23050;51.776;22.638;2023-07-30T08:29:02;26.30;1.00
37158;DHT22;23050;51.776;22.638;2023-07-30T08:31:28;25.10;5.50
37158;DHT22;23050;51.776;22.638;2023-07-30T08:33:53;24.30;12.20
37158;DHT22;23050;51.776;22.638;2023-07-30T08:36:19;23.60;22.60
37158;DHT22;23050;51.776;22.638;2023-07-30T08:38:44;24.40;13.30
37158;DHT22;23050;51.776;22.638;2023-07-30T08:41:10;25.60;7.10
37158;DHT22;23050;51.776;22.638;2023-07-30T08:43:35;26.10;1.00
37158;DHT22;23050;51.776;22.638;2023-07-30T08:46:01;27.20;1.00
37158;DHT22;23050;51.776;22.638;2023-07-30T08:48:27;26.90;1.00
37158;DHT22;23050;51.776;22.638;2023-07-30T08:50:54;26.10;1.00
37158;DHT22;23050;51.776;22.638;2023-07-30T08:53:21;26.60;1.00
37158;DHT22;23050;51.776;22.638;2023-07-30T08:55:47;27.50;1.00
37158;DHT22;23050;51.776;22.638;2023-07-30T08:58:12;28.30;1.00
37158;DHT22;23050;51.776;22.638;2023-07-30T09:00:38;27.60;1.00
37158;DHT22;23050;51.776;22.638;2023-07-30T09:03:06;26.10;1.00
37158;DHT22;23050;51.776;22.638;2023-07-30T09:05:32;25.60;1.00
37158;DHT22;23050;51.776;22.638;2023-07-30T09:07:57;25.30;1.00
37158;DHT22;23050;51.776;22.638;2023-07-30T09:10:23;26.40;1.00
37158;DHT22;23050;51.776;22.638;2023-07-30T09:12:55;27.30;1.00
37158;DHT22;23050;51.776;22.638;2023-07-30T09:15:30;28.50;1.00
37158;DHT22;23050;51.776;22.638;2023-07-30T09:17:56;28.40;1.00
37158;DHT22;23050;51.776;22.638;2023-07-30T09:20:22;28.40;1.00
37158;DHT22;23050;51.776;22.638;2023-07-30T09:22:47;27.70;1.00
37158;DHT22;23050;51.776;22.638;2023-07-30T09:25:17;28.20;1.00
37158;DHT22;23050;51.776;22.638;2023-07-30T09:27:47;29.30;1.00
37158;DHT22;23050;51.776;22.638;2023-07-30T09:30:12;29.90;1.00
37158;DHT22;23050;51.776;22.638;2023-07-30T09:32:37;28.80;1.00
37158;DHT22;23050;51.776;22.638;2023-07-30T09:35:12;29.10;1.00
37158;DHT22;23050;51.776;22.638;2023-07-30T09:37:38;28.90;1.00
37158;DHT22;23050;51.776;22.638;2023-07-30T09:40:05;29.50;1.00
37158;DHT22;23050;51.776;22.638;2023-07-30T09:42:31;31.00;1.00
37158;DHT22;23050;51.776;22.638;2023-07-30T09:44:59;31.50;1.00
37158;DHT22;23050;51.776;22.638;2023-07-30T09:47:26;30.50;1.00
37158;DHT22;23050;51.776;22.638;2023-07-30T09:49:51;28.80;1.00
37158;DHT22;23050;51.776;22.638;2023-07-30T09:52:17;28.10;1.00
37158;DHT22;23050;51.776;22.638;2023-07-30T09:54:43;27.80;1.00
37158;DHT22;23050;51.776;22.638;2023-07-30T09:57:08;28.90;1.00
37158;DHT22;23050;51.776;22.638;2023-07-30T09:59:34;29.80;1.00
37158;DHT22;23050;51.776;22.638;2023-07-30T10:01:59;30.40;1.00
37158;DHT22;23050;51.776;22.638;2023-07-30T10:04:26;29.90;1.00
37158;DHT22;23050;51.776;22.638;2023-07-30T10:06:55;29.00;1.00
37158;DHT22;23050;51.776;22.638;2023-07-30T10:09:22;28.90;1.00
37158;DHT22;23050;51.776;22.638;2023-07-30T10:11:49;29.30;1.00
37158;DHT22;23050;51.776;22.638;2023-07-30T10:14:16;30.60;1.00
37158;DHT22;23050;51.776;22.638;2023-07-30T10:16:52;30.80;1.00
37158;DHT22;23050;51.776;22.638;2023-07-30T10:19:18;31.30;1.00
37158;DHT22;23050;51.776;22.638;2023-07-30T10:21:47;31.70;1.00
37158;DHT22;23050;51.776;22.638;2023-07-30T10:24:12;31.50;1.00
37158;DHT22;23050;51.776;22.638;2023-07-30T10:26:38;30.40;1.00
37158;DHT22;23050;51.776;22.638;2023-07-30T10:31:38;28.00;1.00
37158;DHT22;23050;51.776;22.638;2023-07-30T10:34:06;28.00;1.00
37158;DHT22;23050;51.776;22.638;2023-07-30T10:36:32;28.60;1.00
37158;DHT22;23050;51.776;22.638;2023-07-30T10:41:36;28.10;1.00
37158;DHT22;23050;51.776;22.638;2023-07-30T10:44:02;28.70;1.00
37158;DHT22;23050;51.776;22.638;2023-07-30T10:46:28;29.50;1.00
37158;DHT22;23050;51.776;22.638;2023-07-30T10:48:53;30.10;1.00
37158;DHT22;23050;51.776;22.638;2023-07-30T10:51:19;30.80;1.00
37158;DHT22;23050;51.776;22.638;2023-07-30T10:53:49;31.60;1.00
37158;DHT22;23050;51.776;22.638;2023-07-30T10:56:16;31.20;1.00
37158;DHT22;23050;51.776;22.638;2023-07-30T10:58:42;31.70;1.00
37158;DHT22;23050;51.776;22.638;2023-07-30T11:01:08;32.40;1.00
37158;DHT22;23050;51.776;22.638;2023-07-30T11:03:34;33.00;1.00
37158;DHT22;23050;51.776;22.638;2023-07-30T11:06:00;33.20;1.00
37158;DHT22;23050;51.776;22.638;2023-07-30T11:10:58;31.10;1.00
37158;DHT22;23050;51.776;22.638;2023-07-30T11:13:24;30.80;1.00
37158;DHT22;23050;51.776;22.638;2023-07-30T11:15:49;31.10;1.00
37158;DHT22;23050;51.776;22.638;2023-07-30T11:18:15;30.80;1.00
37158;DHT22;23050;51.776;22.638;2023-07-30T11:20:40;29.90;1.00
37158;DHT22;23050;51.776;22.638;2023-07-30T11:23:19;29.30;1.00
37158;DHT22;23050;51.776;22.638;2023-07-30T11:25:45;29.10;1.00
37158;DHT22;23050;51.776;22.638;2023-07-30T11:28:11;29.00;1.00
37158;DHT22;23050;51.776;22.638;2023-07-30T11:30:36;28.40;1.00
37158;DHT22;23050;51.776;22.638;2023-07-30T11:33:02;28.40;1.00
37158;DHT22;23050;51.776;22.638;2023-07-30T11:35:27;27.90;1.00
37158;DHT22;23050;51.776;22.638;2023-07-30T11:37:53;27.80;1.00
37158;DHT22;23050;51.776;22.638;2023-07-30T11:40:19;27.30;1.00
37158;DHT22;23050;51.776;22.638;2023-07-30T11:42:44;27.00;1.00
37158;DHT22;23050;51.776;22.638;2023-07-30T11:45:16;27.20;1.00
37158;DHT22;23050;51.776;22.638;2023-07-30T11:47:42;27.50;1.00
37158;DHT22;23050;51.776;22.638;2023-07-30T11:50:07;28.20;1.00
37158;DHT22;23050;51.776;22.638;2023-07-30T11:52:33;28.20;1.00
37158;DHT22;23050;51.776;22.638;2023-07-30T11:55:04;27.90;1.00
37158;DHT22;23050;51.776;22.638;2023-07-30T11:57:34;27.60;1.00
37158;DHT22;23050;51.776;22.638;2023-07-30T11:59:59;28.10;1.00
37158;DHT22;23050;51.776;22.638;2023-07-30T12:02:25;27.90;1.00
37158;DHT22;23050;51.776;22.638;2023-07-30T12:04:50;27.80;1.00
37158;DHT22;23050;51.776;22.638;2023-07-30T12:07:25;28.60;1.00
37158;DHT22;23050;51.776;22.638;2023-07-30T12:09:51;29.20;1.00
37158;DHT22;23050;51.776;22.638;2023-07-30T12:12:16;29.50;1.00
37158;DHT22;23050;51.776;22.638;2023-07-30T12:17:13;30.20;1.00
37158;DHT22;23050;51.776;22.638;2023-07-30T12:19:39;30.00;1.00
37158;DHT22;23050;51.776;22.638;2023-07-30T12:22:05;29.70;1.00
37158;DHT22;23050;51.776;22.638;2023-07-30T12:24:31;29.80;1.00
37158;DHT22;23050;51.776;22.638;2023-07-30T12:26:56;29.70;1.00
37158;DHT22;23050;51.776;22.638;2023-07-30T12:29:22;30.00;1.00
37158;DHT22;23050;51.776;22.638;2023-07-30T12:31:48;30.40;1.00
37158;DHT22;23050;51.776;22.638;2023-07-30T12:34:14;30.60;1.00
37158;DHT22;23050;51.776;22.638;2023-07-30T12:36:40;31.20;1.00
37158;DHT22;23050;51.776;22.638;2023-07-30T12:39:05;31.30;1.00
37158;DHT22;23050;51.776;22.638;2023-07-30T12:41:31;31.20;1.00
37158;DHT22;23050;51.776;22.638;2023-07-30T12:43:56;30.60;1.00
37158;DHT22;23050;51.776;22.638;2023-07-30T12:46:22;29.70;1.00
37158;DHT22;23050;51.776;22.638;2023-07-30T12:48:48;29.10;1.00
37158;DHT22;23050;51.776;22.638;2023-07-30T12:51:14;29.00;1.00
37158;DHT22;23050;51.776;22.638;2023-07-30T12:53:39;28.80;1.00
37158;DHT22;23050;51.776;22.638;2023-07-30T12:56:05;28.60;1.00
37158;DHT22;23050;51.776;22.638;2023-07-30T12:58:32;28.60;1.00
37158;DHT22;23050;51.776;22.638;2023-07-30T13:00:58;29.20;1.00
37158;DHT22;23050;51.776;22.638;2023-07-30T13:03:23;29.70;1.00
37158;DHT22;23050;51.776;22.638;2023-07-30T13:05:49;30.00;1.00
37158;DHT22;23050;51.776;22.638;2023-07-30T13:08:14;30.20;1.00
37158;DHT22;23050;51.776;22.638;2023-07-30T13:10:40;30.80;1.00
37158;DHT22;23050;51.776;22.638;2023-07-30T13:13:05;31.30;1.00
37158;DHT22;23050;51.776;22.638;2023-07-30T13:15:31;31.60;1.00
37158;DHT22;23050;51.776;22.638;2023-07-30T13:17:56;31.70;1.00
37158;DHT22;23050;51.776;22.638;2023-07-30T13:20:22;31.30;1.00
37158;DHT22;23050;51.776;22.638;2023-07-30T13:22:49;31.50;1.00
37158;DHT22;23050;51.776;22.638;2023-07-30T13:25:15;30.70;1.00
37158;DHT22;23050;51.776;22.638;2023-07-30T13:27:40;30.40;1.00
37158;DHT22;23050;51.776;22.638;2023-07-30T13:30:06;30.60;1.00
37158;DHT22;23050;51.776;22.638;2023-07-30T13:32:31;30.50;1.00
37158;DHT22;23050;51.776;22.638;2023-07-30T13:34:57;30.70;1.00
37158;DHT22;23050;51.776;22.638;2023-07-30T13:37:22;30.70;1.00
37158;DHT22;23050;51.776;22.638;2023-07-30T13:39:48;30.00;1.00
37158;DHT22;23050;51.776;22.638;2023-07-30T13:42:13;29.50;1.00
37158;DHT22;23050;51.776;22.638;2023-07-30T13:44:39;29.30;1.00
37158;DHT22;23050;51.776;22.638;2023-07-30T13:47:04;29.00;1.00
37158;DHT22;23050;51.776;22.638;2023-07-30T13:49:30;29.40;1.00
37158;DHT22;23050;51.776;22.638;2023-07-30T13:51:55;30.20;1.00
37158;DHT22;23050;51.776;22.638;2023-07-30T13:54:21;30.90;1.00
37158;DHT22;23050;51.776;22.638;2023-07-30T13:56:46;30.80;1.00
37158;DHT22;23050;51.776;22.638;2023-07-30T13:59:12;30.10;1.00
37158;DHT22;23050;51.776;22.638;2023-07-30T14:01:37;29.80;1.00
37158;DHT22;23050;51.776;22.638;2023-07-30T14:04:03;30.00;1.00
37158;DHT22;23050;51.776;22.638;2023-07-30T14:06:28;29.80;1.00
37158;DHT22;23050;51.776;22.638;2023-07-30T14:08:54;30.20;1.00
37158;DHT22;23050;51.776;22.638;2023-07-30T14:11:20;30.80;1.00
37158;DHT22;23050;51.776;22.638;2023-07-30T14:13:45;30.20;1.00
37158;DHT22;23050;51.776;22.638;2023-07-30T14:16:11;29.80;1.00
37158;DHT22;23050;51.776;22.638;2023-07-30T14:18:36;29.30;1.00
37158;DHT22;23050;51.776;22.638;2023-07-30T14:21:04;29.20;1.00
37158;DHT22;23050;51.776;22.638;2023-07-30T14:23:29;29.30;1.00
37158;DHT22;23050;51.776;22.638;2023-07-30T14:25:55;29.40;1.00
37158;DHT22;23050;51.776;22.638;2023-07-30T14:28:20;29.70;1.00
37158;DHT22;23050;51.776;22.638;2023-07-30T14:30:46;30.00;1.00
37158;DHT22;23050;51.776;22.638;2023-07-30T14:33:11;30.10;1.00
37158;DHT22;23050;51.776;22.638;2023-07-30T14:35:37;30.60;1.00
37158;DHT22;23050;51.776;22.638;2023-07-30T14:38:03;30.90;1.00
37158;DHT22;23050;51.776;22.638;2023-07-30T14:40:29;31.10;1.00
37158;DHT22;23050;51.776;22.638;2023-07-30T14:42:55;30.60;1.00
37158;DHT22;23050;51.776;22.638;2023-07-30T14:45:20;30.10;1.00
37158;DHT22;23050;51.776;22.638;2023-07-30T14:47:46;29.90;1.00
37158;DHT22;23050;51.776;22.638;2023-07-30T14:50:11;29.70;1.00
37158;DHT22;23050;51.776;22.638;2023-07-30T14:52:37;29.50;1.00
37158;DHT22;23050;51.776;22.638;2023-07-30T14:55:02;29.10;1.00
37158;DHT22;23050;51.776;22.638;2023-07-30T14:57:28;28.90;1.00
37158;DHT22;23050;51.776;22.638;2023-07-30T14:59:55;29.10;1.00
37158;DHT22;23050;51.776;22.638;2023-07-30T15:02:22;29.20;1.00
37158;DHT22;23050;51.776;22.638;2023-07-30T15:04:48;29.30;1.00
37158;DHT22;23050;51.776;22.638;2023-07-30T15:07:16;28.90;1.00
37158;DHT22;23050;51.776;22.638;2023-07-30T15:09:44;29.20;1.00
37158;DHT22;23050;51.776;22.638;2023-07-30T15:12:12;29.60;1.00
37158;DHT22;23050;51.776;22.638;2023-07-30T15:14:45;30.10;1.00
37158;DHT22;23050;51.776;22.638;2023-07-30T15:17:11;30.30;1.00
37158;DHT22;23050;51.776;22.638;2023-07-30T15:19:37;30.30;1.00
37158;DHT22;23050;51.776;22.638;2023-07-30T15:22:02;29.80;1.00
37158;DHT22;23050;51.776;22.638;2023-07-30T15:24:28;30.10;1.00
37158;DHT22;23050;51.776;22.638;2023-07-30T15:26:54;30.10;1.00
37158;DHT22;23050;51.776;22.638;2023-07-30T15:29:21;30.10;1.00